createdAt,value
2022-10-18T00:00:54.844Z,16.60
2022-10-18T00:03:22.472Z,16.60
2022-10-18T00:05:50.167Z,16.60
2022-10-18T00:08:18.091Z,16.60
2022-10-18T00:10:46.046Z,16.50
2022-10-18T00:13:13.143Z,16.50
2022-10-18T00:15:40.402Z,16.50
2022-10-18T00:18:07.355Z,16.60
2022-10-18T00:20:34.338Z,16.50
2022-10-18T00:23:01.329Z,16.60
2022-10-18T00:25:28.399Z,16.50
2022-10-18T00:27:55.339Z,16.50
2022-10-18T00:30:22.568Z,16.50
2022-10-18T00:32:49.531Z,16.50
2022-10-18T00:35:16.637Z,16.50
2022-10-18T00:37:43.748Z,16.50
2022-10-18T00:40:11.142Z,16.50
2022-10-18T00:42:38.736Z,16.50
2022-10-18T00:45:25.340Z,16.50
2022-10-18T00:47:59.443Z,16.50
2022-10-18T00:50:29.953Z,16.50
2022-10-18T00:53:00.684Z,16.50
2022-10-18T00:55:29.012Z,16.50
2022-10-18T00:57:56.537Z,16.40
2022-10-18T01:00:23.630Z,16.40
2022-10-18T01:02:50.868Z,16.40
2022-10-18T01:05:19.453Z,16.40
2022-10-18T01:08:08.657Z,16.40
2022-10-18T01:10:59.878Z,16.50
2022-10-18T01:13:54.448Z,16.40
2022-10-18T01:16:37.704Z,16.40
2022-10-18T01:19:21.900Z,16.40
2022-10-18T01:22:04.488Z,16.40
2022-10-18T01:24:42.413Z,16.40
2022-10-18T01:27:35.552Z,16.40
2022-10-18T01:30:30.639Z,16.40
2022-10-18T01:33:26.820Z,16.40
2022-10-18T01:36:29.301Z,16.40
2022-10-18T01:39:00.114Z,16.40
2022-10-18T01:41:28.536Z,16.40
2022-10-18T01:44:01.800Z,16.40
2022-10-18T01:46:29.969Z,16.30
2022-10-18T01:48:58.132Z,16.30
2022-10-18T01:51:27.802Z,16.40
2022-10-18T01:53:55.348Z,16.30
2022-10-18T01:56:38.500Z,16.30
2022-10-18T01:59:14.308Z,16.30
2022-10-18T02:02:18.472Z,16.30
2022-10-18T02:04:54.838Z,16.30
2022-10-18T02:07:37.882Z,16.30
2022-10-18T02:10:12.989Z,16.30
2022-10-18T02:12:44.008Z,16.30
2022-10-18T02:15:16.469Z,16.30
2022-10-18T02:17:45.760Z,16.30
2022-10-18T02:20:14.926Z,16.20
2022-10-18T02:22:46.148Z,16.30
2022-10-18T02:25:19.614Z,16.30
2022-10-18T02:27:47.032Z,16.30
2022-10-18T02:30:15.892Z,16.30
2022-10-18T02:33:12.938Z,16.30
2022-10-18T02:35:44.598Z,16.30
2022-10-18T02:38:14.214Z,16.30
2022-10-18T02:40:41.214Z,16.30
2022-10-18T02:43:08.199Z,16.30
2022-10-18T02:45:35.477Z,16.30
2022-10-18T02:48:02.460Z,16.20
2022-10-18T02:50:30.095Z,16.20
2022-10-18T02:52:57.629Z,16.20
2022-10-18T02:55:25.071Z,16.20
2022-10-18T02:57:52.583Z,16.20
2022-10-18T03:00:19.797Z,16.20
2022-10-18T03:02:49.286Z,16.20
2022-10-18T03:05:16.595Z,16.20
2022-10-18T03:07:43.558Z,16.20
2022-10-18T03:10:10.543Z,16.20
2022-10-18T03:12:37.583Z,16.20
2022-10-18T03:15:05.068Z,16.20
2022-10-18T03:17:32.152Z,16.10
2022-10-18T03:19:59.246Z,16.10
2022-10-18T03:24:55.947Z,16.10
2022-10-18T03:27:22.970Z,16.20
2022-10-18T03:29:49.905Z,16.20
2022-10-18T03:32:16.878Z,16.20
2022-10-18T03:34:43.907Z,16.20
2022-10-18T03:37:10.966Z,16.20
2022-10-18T03:39:38.217Z,16.20
2022-10-18T03:42:05.638Z,16.20
2022-10-18T03:44:32.685Z,16.20
2022-10-18T03:46:59.890Z,16.20
2022-10-18T03:49:26.886Z,16.10
2022-10-18T03:51:53.867Z,16.10
2022-10-18T03:54:21.060Z,16.10
2022-10-18T03:56:48.172Z,16.10
2022-10-18T03:59:17.091Z,16.10
2022-10-18T04:01:44.078Z,16.10
2022-10-18T04:04:11.047Z,16.10
2022-10-18T04:06:37.962Z,16.10
2022-10-18T04:09:07.872Z,16.10
2022-10-18T04:11:37.136Z,16.10
2022-10-18T04:14:04.269Z,16.10
2022-10-18T04:16:31.268Z,16.10
2022-10-18T04:18:58.215Z,16.10
2022-10-18T04:21:25.139Z,16.10
2022-10-18T04:23:52.084Z,16.10
2022-10-18T04:26:19.158Z,16.10
2022-10-18T04:28:46.141Z,16.10
2022-10-18T04:31:13.108Z,16.00
2022-10-18T04:33:40.111Z,16.10
2022-10-18T04:36:07.280Z,16.10
2022-10-18T04:38:34.262Z,16.10
2022-10-18T04:41:01.235Z,16.10
2022-10-18T04:43:28.181Z,16.10
2022-10-18T04:45:55.187Z,16.10
2022-10-18T04:48:22.154Z,16.10
2022-10-18T04:50:50.819Z,16.00
2022-10-18T04:53:18.609Z,16.10
2022-10-18T04:55:48.917Z,16.00
2022-10-18T04:58:16.980Z,16.00
2022-10-18T05:00:43.992Z,16.00
2022-10-18T05:03:13.379Z,16.00
2022-10-18T05:06:00.221Z,16.00
2022-10-18T05:08:27.679Z,16.00
2022-10-18T05:10:54.698Z,16.00
2022-10-18T05:13:21.807Z,16.00
2022-10-18T05:15:48.727Z,16.00
2022-10-18T05:18:15.767Z,16.00
2022-10-18T05:20:42.737Z,16.00
2022-10-18T05:23:12.590Z,16.00
2022-10-18T05:25:40.347Z,16.00
2022-10-18T05:28:15.571Z,16.00
2022-10-18T05:30:54.631Z,15.90
2022-10-18T05:33:21.859Z,15.90
2022-10-18T05:35:48.824Z,16.00
2022-10-18T05:38:15.768Z,16.00
2022-10-18T05:40:43.127Z,16.00
2022-10-18T05:43:10.158Z,16.00
2022-10-18T05:45:37.083Z,16.10
2022-10-18T05:48:05.523Z,16.10
2022-10-18T05:50:36.603Z,16.20
2022-10-18T05:53:12.073Z,16.20
2022-10-18T05:55:39.589Z,16.20
2022-10-18T05:58:06.561Z,16.30
2022-10-18T06:00:33.492Z,16.40
2022-10-18T06:03:00.681Z,16.40
2022-10-18T06:05:28.240Z,16.50
2022-10-18T06:07:57.072Z,16.50
2022-10-18T06:10:24.160Z,16.60
2022-10-18T06:12:51.955Z,16.70
2022-10-18T06:15:18.945Z,16.70
2022-10-18T06:17:45.861Z,16.90
2022-10-18T06:20:12.977Z,17.00
2022-10-18T06:22:39.894Z,17.20
2022-10-18T06:25:07.185Z,17.60
2022-10-18T06:27:35.428Z,17.90
2022-10-18T06:30:02.709Z,18.10
2022-10-18T06:32:29.654Z,18.20
2022-10-18T06:34:56.627Z,18.30
2022-10-18T06:37:23.586Z,18.40
2022-10-18T06:39:50.511Z,18.60
2022-10-18T06:42:19.166Z,18.80
2022-10-18T06:44:49.819Z,19.00
2022-10-18T06:47:16.744Z,19.20
2022-10-18T06:49:43.635Z,19.50
2022-10-18T06:52:10.547Z,19.70
2022-10-18T06:54:37.661Z,20.00
2022-10-18T06:57:06.173Z,20.30
2022-10-18T06:59:33.243Z,20.50
2022-10-18T07:02:00.307Z,20.80
2022-10-18T07:04:33.063Z,21.00
2022-10-18T07:07:00.007Z,21.30
2022-10-18T07:09:27.010Z,21.50
2022-10-18T07:11:54.152Z,21.80
2022-10-18T07:14:22.310Z,22.10
2022-10-18T07:16:51.644Z,22.50
2022-10-18T07:19:18.583Z,23.10
2022-10-18T07:21:45.548Z,23.70
2022-10-18T07:24:12.483Z,24.30
2022-10-18T07:26:39.363Z,25.00
2022-10-18T07:29:09.883Z,25.80
2022-10-18T07:31:38.535Z,26.60
2022-10-18T07:34:06.197Z,27.40
2022-10-18T07:36:34.556Z,28.10
2022-10-18T07:39:01.518Z,28.80
2022-10-18T07:41:29.209Z,29.40
2022-10-18T07:43:56.300Z,29.90
2022-10-18T07:46:23.293Z,30.40
2022-10-18T07:48:50.885Z,30.90
2022-10-18T07:51:19.476Z,31.30
2022-10-18T07:53:46.874Z,31.70
2022-10-18T07:56:16.587Z,31.80
2022-10-18T07:58:45.212Z,32.00
2022-10-18T08:01:13.358Z,32.20
2022-10-18T08:03:40.826Z,32.40
2022-10-18T08:06:09.691Z,32.40
2022-10-18T08:08:37.978Z,32.70
2022-10-18T08:11:10.764Z,32.80
2022-10-18T08:13:37.750Z,32.70
2022-10-18T08:16:07.619Z,32.50
2022-10-18T08:18:35.125Z,32.30
2022-10-18T08:21:03.863Z,32.10
2022-10-18T08:23:31.181Z,32.00
2022-10-18T08:26:05.063Z,31.90
2022-10-18T08:28:32.057Z,31.90
2022-10-18T08:31:03.784Z,31.80
2022-10-18T08:33:31.662Z,31.40
2022-10-18T08:36:00.294Z,31.00
2022-10-18T08:38:30.588Z,30.90
2022-10-18T08:41:00.534Z,30.90
2022-10-18T08:43:37.919Z,31.10
2022-10-18T08:46:05.121Z,31.10
2022-10-18T08:48:40.642Z,31.20
2022-10-18T08:51:25.514Z,31.20
2022-10-18T08:54:10.907Z,31.20
2022-10-18T08:56:39.439Z,31.00
2022-10-18T08:59:11.541Z,30.90
2022-10-18T09:01:44.831Z,30.70
2022-10-18T09:04:17.856Z,30.30
2022-10-18T09:07:13.204Z,29.80
2022-10-18T09:09:47.432Z,29.60
2022-10-18T09:12:27.328Z,29.50
2022-10-18T09:15:13.204Z,29.70
2022-10-18T09:18:03.959Z,29.90
2022-10-18T09:20:55.334Z,30.50
2022-10-18T09:23:47.485Z,30.80
2022-10-18T09:26:20.842Z,31.20
2022-10-18T09:29:24.574Z,31.60
2022-10-18T09:32:12.490Z,31.90
2022-10-18T09:34:55.479Z,32.30
2022-10-18T09:37:24.742Z,32.90
2022-10-18T09:40:07.029Z,32.90
2022-10-18T09:42:41.500Z,33.00
2022-10-18T09:45:23.888Z,33.20
2022-10-18T09:48:05.993Z,33.60
2022-10-18T09:50:41.398Z,34.40
2022-10-18T09:53:26.272Z,34.70
2022-10-18T09:55:53.142Z,35.10
2022-10-18T09:58:22.880Z,35.50
2022-10-18T10:00:52.777Z,35.30
2022-10-18T10:03:19.728Z,34.90
2022-10-18T10:05:46.973Z,34.60
2022-10-18T10:08:13.923Z,34.80
2022-10-18T10:10:47.258Z,35.10
2022-10-18T10:13:23.082Z,35.60
2022-10-18T10:16:03.620Z,35.60
2022-10-18T10:18:40.230Z,35.50
2022-10-18T10:21:13.523Z,35.80
2022-10-18T10:23:59.020Z,36.00
2022-10-18T10:26:34.245Z,36.40
2022-10-18T10:29:01.755Z,36.50
2022-10-18T10:31:29.846Z,36.30
2022-10-18T10:34:22.111Z,36.30
2022-10-18T10:36:54.774Z,36.30
2022-10-18T10:39:24.513Z,36.00
2022-10-18T10:41:58.693Z,36.10
2022-10-18T10:44:28.903Z,36.40
2022-10-18T10:46:57.434Z,36.20
2022-10-18T10:49:47.467Z,36.40
2022-10-18T10:52:27.433Z,36.60
2022-10-18T10:55:11.040Z,37.10
2022-10-18T10:57:51.217Z,37.00
2022-10-18T11:00:39.270Z,36.60
2022-10-18T11:03:33.998Z,36.70
2022-10-18T11:06:02.176Z,36.60
2022-10-18T11:08:40.157Z,36.50
2022-10-18T11:11:30.987Z,36.70
2022-10-18T11:14:29.558Z,36.90
2022-10-18T11:17:11.748Z,36.80
2022-10-18T11:19:45.020Z,37.00
2022-10-18T11:22:17.105Z,36.90
2022-10-18T11:24:44.187Z,36.30
2022-10-18T11:27:28.837Z,36.00
2022-10-18T11:30:13.691Z,35.50
2022-10-18T11:33:03.579Z,35.20
2022-10-18T11:36:04.691Z,35.20
2022-10-18T11:38:41.216Z,35.40
2022-10-18T11:41:27.531Z,35.80
2022-10-18T11:44:04.192Z,35.90
2022-10-18T11:46:36.752Z,35.70
2022-10-18T11:49:41.171Z,35.50
2022-10-18T11:52:37.000Z,35.70
2022-10-18T11:55:37.912Z,35.50
2022-10-18T11:58:15.665Z,35.40
2022-10-18T12:01:17.668Z,35.40
2022-10-18T12:04:23.397Z,35.20
2022-10-18T12:06:53.744Z,35.40
2022-10-18T12:09:32.627Z,35.80
2022-10-18T12:12:22.841Z,36.80
2022-10-18T12:15:13.573Z,37.20
2022-10-18T12:17:50.081Z,37.40
2022-10-18T12:20:30.078Z,37.50
2022-10-18T12:23:10.710Z,37.50
2022-10-18T12:25:42.129Z,37.60
2022-10-18T12:28:27.995Z,37.80
2022-10-18T12:31:12.120Z,37.80
2022-10-18T12:33:44.582Z,37.60
2022-10-18T12:36:38.861Z,37.70
2022-10-18T12:39:11.224Z,37.60
2022-10-18T12:41:38.875Z,37.60
2022-10-18T12:44:17.895Z,37.60
2022-10-18T12:46:49.747Z,37.80
2022-10-18T12:49:33.100Z,37.60
2022-10-18T12:52:19.214Z,37.10
2022-10-18T12:55:07.545Z,37.10
2022-10-18T12:57:52.530Z,37.20
2022-10-18T13:00:31.610Z,37.40
2022-10-18T13:03:13.614Z,37.40
2022-10-18T13:05:53.901Z,37.40
2022-10-18T13:08:27.820Z,37.40
2022-10-18T13:11:10.059Z,37.40
2022-10-18T13:16:39.076Z,37.30
2022-10-18T13:20:02.956Z,36.70
2022-10-18T13:22:55.751Z,36.00
2022-10-18T13:25:49.382Z,35.60
2022-10-18T13:28:41.709Z,35.60
2022-10-18T13:31:30.830Z,35.50
2022-10-18T13:34:26.463Z,35.60
2022-10-18T13:37:12.251Z,35.60
2022-10-18T13:39:40.433Z,35.50
2022-10-18T13:42:16.539Z,34.90
2022-10-18T13:44:45.681Z,34.70
2022-10-18T13:47:33.974Z,34.50
2022-10-18T13:53:12.825Z,34.30
2022-10-18T13:55:50.861Z,34.40
2022-10-18T13:59:14.453Z,34.40
2022-10-18T14:02:11.096Z,34.60
2022-10-18T14:05:06.184Z,34.80
2022-10-18T14:07:44.690Z,34.90
2022-10-18T14:10:57.459Z,34.70
2022-10-18T14:13:58.527Z,34.70
2022-10-18T14:16:39.461Z,34.60
2022-10-18T14:19:42.991Z,34.20
2022-10-18T14:22:25.643Z,34.10
2022-10-18T14:24:55.748Z,33.80
2022-10-18T14:27:28.258Z,33.50
2022-10-18T14:30:16.217Z,33.10
2022-10-18T14:32:54.513Z,32.60
2022-10-18T14:35:32.894Z,32.40
2022-10-18T14:38:00.450Z,32.20
2022-10-18T14:40:34.685Z,32.10
2022-10-18T14:43:12.983Z,31.90
2022-10-18T14:45:40.878Z,31.60
2022-10-18T14:48:16.909Z,31.30
2022-10-18T14:50:47.301Z,31.10
2022-10-18T14:53:18.717Z,30.80
2022-10-18T14:55:56.520Z,30.30
2022-10-18T14:58:23.808Z,29.80
2022-10-18T15:00:50.813Z,29.10
2022-10-18T15:03:19.120Z,28.50
2022-10-18T15:05:59.534Z,28.20
2022-10-18T15:08:44.857Z,27.90
2022-10-18T15:11:14.393Z,27.40
2022-10-18T15:14:03.192Z,26.90
2022-10-18T15:16:32.165Z,26.60
2022-10-18T15:19:22.055Z,26.30
2022-10-18T15:25:04.747Z,25.70
2022-10-18T15:27:36.162Z,25.50
2022-10-18T15:30:29.394Z,25.10
2022-10-18T15:33:01.612Z,25.00
2022-10-18T15:35:34.501Z,24.70
2022-10-18T15:38:20.780Z,24.50
2022-10-18T15:40:48.060Z,24.30
2022-10-18T15:43:27.584Z,24.20
2022-10-18T15:46:03.421Z,24.00
2022-10-18T15:48:38.678Z,23.80
2022-10-18T15:51:08.201Z,23.70
2022-10-18T15:53:41.753Z,23.50
2022-10-18T15:56:20.428Z,23.40
2022-10-18T15:58:48.913Z,23.20
2022-10-18T16:01:22.719Z,23.00
2022-10-18T16:03:51.446Z,22.90
2022-10-18T16:06:19.062Z,22.80
2022-10-18T16:08:51.311Z,22.60
2022-10-18T16:11:20.776Z,22.50
2022-10-18T16:13:48.247Z,22.30
2022-10-18T16:16:23.915Z,22.30
2022-10-18T16:18:51.815Z,22.20
2022-10-18T16:21:27.849Z,22.00
2022-10-18T16:23:55.623Z,21.90
2022-10-18T16:26:24.233Z,21.80
2022-10-18T16:28:51.976Z,21.70
2022-10-18T16:31:22.207Z,21.60
2022-10-18T16:33:50.218Z,21.50
2022-10-18T16:36:21.508Z,21.40
2022-10-18T16:38:48.859Z,21.30
2022-10-18T16:41:15.967Z,21.20
2022-10-18T16:43:47.523Z,21.20
2022-10-18T16:46:23.031Z,21.10
2022-10-18T16:48:51.139Z,21.10
2022-10-18T16:51:18.288Z,21.00
2022-10-18T16:53:45.776Z,20.90
2022-10-18T16:56:33.220Z,20.80
2022-10-18T16:59:00.730Z,20.70
2022-10-18T17:01:27.768Z,20.70
2022-10-18T17:03:55.329Z,20.60
2022-10-18T17:06:28.047Z,20.60
2022-10-18T17:08:56.216Z,20.60
2022-10-18T17:11:25.339Z,20.50
2022-10-18T17:13:53.064Z,20.40
2022-10-18T17:19:05.891Z,20.40
2022-10-18T17:21:33.587Z,20.30
2022-10-18T17:24:05.873Z,20.30
2022-10-18T17:26:33.787Z,20.20
2022-10-18T17:29:04.228Z,20.20
2022-10-18T17:31:32.364Z,20.10
2022-10-18T17:34:01.778Z,20.10
2022-10-18T17:36:30.633Z,20.00
2022-10-18T17:38:58.472Z,19.90
2022-10-18T17:41:25.402Z,19.90
2022-10-18T17:43:52.384Z,19.80
2022-10-18T17:46:19.648Z,19.80
2022-10-18T17:48:46.957Z,19.80
2022-10-18T17:51:16.793Z,19.70
2022-10-18T17:53:44.147Z,19.70
2022-10-18T17:56:12.635Z,19.70
2022-10-18T17:58:40.049Z,19.70
2022-10-18T18:01:18.750Z,19.60
2022-10-18T18:03:47.805Z,19.60
2022-10-18T18:06:19.919Z,19.60
2022-10-18T18:08:47.801Z,19.50
2022-10-18T18:11:15.658Z,19.50
2022-10-18T18:13:42.741Z,19.40
2022-10-18T18:16:15.587Z,19.40
2022-10-18T18:18:43.069Z,19.40
2022-10-18T18:21:10.445Z,19.30
2022-10-18T18:23:37.465Z,19.30
2022-10-18T18:26:05.819Z,19.30
2022-10-18T18:28:33.415Z,19.20
2022-10-18T18:31:04.585Z,19.20
2022-10-18T18:33:33.326Z,19.20
2022-10-18T18:36:00.299Z,19.10
2022-10-18T18:38:27.319Z,19.10
2022-10-18T18:41:24.739Z,19.10
2022-10-18T18:44:00.207Z,19.10
2022-10-18T18:46:29.257Z,19.00
2022-10-18T18:48:59.513Z,19.00
2022-10-18T18:51:28.316Z,18.90
2022-10-18T18:53:55.295Z,18.90
2022-10-18T18:56:29.084Z,18.80
2022-10-18T18:58:56.875Z,18.90
2022-10-18T19:01:26.848Z,18.80
2022-10-18T19:03:55.026Z,18.80
2022-10-18T19:06:26.608Z,18.70
2022-10-18T19:09:00.015Z,18.70
2022-10-18T19:11:29.915Z,18.70
2022-10-18T19:13:56.919Z,18.70
2022-10-18T19:16:28.715Z,18.60
2022-10-18T19:18:59.891Z,18.60
2022-10-18T19:21:35.911Z,18.60
2022-10-18T19:24:04.430Z,18.60
2022-10-18T19:26:44.476Z,18.50
2022-10-18T19:29:29.291Z,18.50
2022-10-18T19:31:59.293Z,18.50
2022-10-18T19:34:28.059Z,18.50
2022-10-18T19:36:55.496Z,18.40
2022-10-18T19:39:24.772Z,18.50
2022-10-18T19:41:55.143Z,18.40
2022-10-18T19:44:23.719Z,18.40
2022-10-18T19:46:51.367Z,18.40
2022-10-18T19:49:18.362Z,18.40
2022-10-18T19:51:45.344Z,18.40
2022-10-18T19:54:13.244Z,18.40
2022-10-18T19:56:43.683Z,18.30
2022-10-18T19:59:11.646Z,18.30
2022-10-18T20:01:39.019Z,18.30
2022-10-18T20:04:08.177Z,18.30
2022-10-18T20:06:35.749Z,18.20
2022-10-18T20:09:03.500Z,18.30
2022-10-18T20:11:31.475Z,18.20
2022-10-18T20:13:59.745Z,18.20
2022-10-18T20:16:29.803Z,18.10
2022-10-18T20:19:07.564Z,18.10
2022-10-18T20:21:35.999Z,18.10
2022-10-18T20:24:04.613Z,18.10
2022-10-18T20:26:32.092Z,18.00
2022-10-18T20:28:59.916Z,18.00
2022-10-18T20:31:39.329Z,18.00
2022-10-18T20:34:10.617Z,18.00
2022-10-18T20:36:38.135Z,18.00
2022-10-18T20:39:06.828Z,18.00
2022-10-18T20:41:36.615Z,17.90
2022-10-18T20:44:10.735Z,17.90
2022-10-18T20:46:38.822Z,17.90
2022-10-18T20:49:07.852Z,17.90
2022-10-18T20:51:35.542Z,17.90
2022-10-18T20:56:34.353Z,17.90
2022-10-18T20:59:01.737Z,17.90
2022-10-18T21:01:31.328Z,17.90
2022-10-18T21:04:01.336Z,17.80
2022-10-18T21:06:36.408Z,17.90
2022-10-18T21:09:18.027Z,17.80
2022-10-18T21:11:47.910Z,17.80
2022-10-18T21:14:17.628Z,17.80
2022-10-18T21:16:45.303Z,17.70
2022-10-18T21:19:15.210Z,17.70
2022-10-18T21:21:44.462Z,17.70
2022-10-18T21:24:12.366Z,17.70
2022-10-18T21:26:39.618Z,17.70
2022-10-18T21:29:07.094Z,17.70
2022-10-18T21:31:36.920Z,17.60
2022-10-18T21:34:07.838Z,17.70
2022-10-18T21:36:36.864Z,17.60
2022-10-18T21:39:05.860Z,17.60
2022-10-18T21:41:33.386Z,17.60
2022-10-18T21:44:02.696Z,17.60
2022-10-18T21:46:31.793Z,17.60
2022-10-18T21:48:58.743Z,17.50
2022-10-18T21:51:27.757Z,17.50
2022-10-18T21:53:57.447Z,17.50
2022-10-18T21:56:29.951Z,17.50
2022-10-18T21:58:58.480Z,17.50
2022-10-18T22:01:28.460Z,17.50
2022-10-18T22:03:56.656Z,17.50
2022-10-18T22:06:25.108Z,17.40
2022-10-18T22:08:57.611Z,17.40
2022-10-18T22:11:38.283Z,17.40
2022-10-18T22:14:05.430Z,17.40
2022-10-18T22:16:32.520Z,17.30
2022-10-18T22:19:01.304Z,17.30
2022-10-18T22:21:29.086Z,17.30
2022-10-18T22:23:57.310Z,17.30
2022-10-18T22:26:52.032Z,17.30
2022-10-18T22:29:21.476Z,17.30
2022-10-18T22:31:51.055Z,17.30
2022-10-18T22:34:20.723Z,17.30
2022-10-18T22:36:47.864Z,17.20
2022-10-18T22:39:15.723Z,17.20
2022-10-18T22:41:43.770Z,17.20
2022-10-18T22:44:12.806Z,17.20
2022-10-18T22:46:40.914Z,17.20
2022-10-18T22:49:08.170Z,17.10
2022-10-18T22:54:07.074Z,17.10
2022-10-18T22:56:34.023Z,17.10
2022-10-18T22:59:00.955Z,17.10
2022-10-18T23:01:27.903Z,17.10
2022-10-18T23:03:56.437Z,17.10
2022-10-18T23:06:26.191Z,17.00
2022-10-18T23:08:55.139Z,17.00
2022-10-18T23:11:22.280Z,17.00
2022-10-18T23:13:49.441Z,17.00
2022-10-18T23:16:17.523Z,17.00
2022-10-18T23:18:44.793Z,17.00
2022-10-18T23:21:13.661Z,17.00
2022-10-18T23:23:42.865Z,16.90
2022-10-18T23:26:15.250Z,17.00
2022-10-18T23:28:45.071Z,17.00
2022-10-18T23:31:18.164Z,16.90
2022-10-18T23:33:46.772Z,16.90
2022-10-18T23:36:14.088Z,16.90
2022-10-18T23:38:41.080Z,16.90
2022-10-18T23:41:09.829Z,16.90
2022-10-18T23:43:36.781Z,16.80
2022-10-18T23:46:04.194Z,16.80
2022-10-18T23:48:31.480Z,16.80
2022-10-18T23:50:58.714Z,16.80
2022-10-18T23:53:25.772Z,16.80
2022-10-18T23:55:54.751Z,16.80
2022-10-18T23:58:21.796Z,16.70
